Time;durP1;ratioP1;P1;durP2;ratioP2;P2;SDS_P1;SDS_P2;PMS_P1;PMS_P2;Temp;Humidity;BMP_temperature;BMP_pressure;BME280_temperature;BME280_humidity;BME280_pressure;Samples;Min_cycle;Max_cycle;Signal;HPM_P1;HPM_P2
2021/04/27 00:00:32;;;;;;;2.93;2.63;;;5.90;81.20;;;;;;471990;251;27861;-71
2021/04/27 00:02:33;;;;;;;4.57;2.72;;;5.90;80.80;;;;;;471984;251;29249;-71
2021/04/27 00:04:35;;;;;;;2.77;2.47;;;5.90;81.00;;;;;;471991;251;27420;-71
2021/04/27 00:06:36;;;;;;;4.28;2.65;;;5.80;80.70;;;;;;471970;251;28807;-72
2021/04/27 00:08:39;;;;;;;3.10;2.30;;;5.90;81.00;;;;;;471983;251;27437;-72
2021/04/27 00:10:38;;;;;;;6.78;2.45;;;5.90;81.30;;;;;;471866;252;27539;-72
2021/04/27 00:12:40;;;;;;;3.30;2.60;;;5.80;80.00;;;;;;471995;251;27432;-72
2021/04/27 00:14:41;;;;;;;3.30;2.70;;;5.80;80.20;;;;;;471963;251;28366;-71
2021/04/27 00:16:42;;;;;;;3.85;2.92;;;5.80;80.40;;;;;;471942;251;27892;-72
2021/04/27 00:18:45;;;;;;;3.20;2.90;;;5.80;80.60;;;;;;471952;248;28081;-72
2021/04/27 00:20:45;;;;;;;2.87;2.40;;;5.70;80.80;;;;;;471904;252;27571;-71
2021/04/27 00:22:46;;;;;;;4.00;2.73;;;5.70;80.30;;;;;;471967;251;27511;-71
2021/04/27 00:24:47;;;;;;;2.45;2.25;;;5.70;79.90;;;;;;471964;252;28864;-71
2021/04/27 00:26:48;;;;;;;4.80;2.60;;;5.80;80.00;;;;;;471973;251;27536;-71
2021/04/27 00:28:50;;;;;;;3.05;2.67;;;5.80;79.90;;;;;;471972;251;27436;-73
2021/04/27 00:30:51;;;;;;;4.18;3.28;;;5.70;80.00;;;;;;471987;251;27896;-71
2021/04/27 00:32:52;;;;;;;10.52;2.33;;;5.70;79.50;;;;;;471983;251;28035;-72
2021/04/27 00:34:53;;;;;;;3.85;2.15;;;5.80;79.30;;;;;;471986;251;27439;-71
2021/04/27 00:36:55;;;;;;;2.17;2.03;;;5.80;79.00;;;;;;471991;251;27433;-72
2021/04/27 00:38:56;;;;;;;2.30;2.10;;;5.80;79.80;;;;;;471995;251;27421;-73
2021/04/27 00:40:57;;;;;;;3.28;2.22;;;5.80;79.90;;;;;;472009;252;27545;-70
2021/04/27 00:42:59;;;;;;;4.70;2.53;;;5.70;78.80;;;;;;472021;251;27913;-72
2021/04/27 00:45:00;;;;;;;3.12;2.78;;;5.70;78.60;;;;;;472013;251;27876;-71
2021/04/27 00:47:01;;;;;;;4.30;2.50;;;5.70;78.90;;;;;;472004;251;27440;-71
2021/04/27 00:49:02;;;;;;;4.50;2.50;;;5.70;78.90;;;;;;472016;252;27419;-72
2021/04/27 00:51:04;;;;;;;3.40;2.20;;;5.70;78.90;;;;;;472014;252;27416;-71
2021/04/27 00:53:05;;;;;;;4.07;2.83;;;5.70;78.80;;;;;;472005;251;27957;-71
2021/04/27 00:55:06;;;;;;;3.72;2.58;;;5.70;77.80;;;;;;471981;248;27520;-71
2021/04/27 00:57:07;;;;;;;5.18;2.58;;;5.70;78.20;;;;;;471966;252;27896;-71
2021/04/27 00:59:09;;;;;;;2.40;2.20;;;5.70;78.10;;;;;;471998;252;29386;-71
2021/04/27 01:01:11;;;;;;;5.60;2.60;;;5.70;78.00;;;;;;471967;251;27530;-71
2021/04/27 01:03:11;;;;;;;2.75;2.50;;;5.70;77.60;;;;;;459582;251;27554;-72
2021/04/27 01:05:12;;;;;;;2.97;2.35;;;5.80;77.40;;;;;;469921;252;27672;-71
2021/04/27 01:07:14;;;;;;;3.30;3.00;;;5.80;77.60;;;;;;462669;257;27591;-71
2021/04/27 01:09:15;;;;;;;2.65;2.25;;;5.80;77.50;;;;;;462652;257;28998;-71
2021/04/27 01:11:16;;;;;;;3.37;2.58;;;5.80;77.00;;;;;;462667;257;28154;-71
2021/04/27 01:13:17;;;;;;;3.12;2.78;;;5.80;77.50;;;;;;460516;257;27925;-71
2021/04/27 01:15:19;;;;;;;5.65;2.80;;;5.80;77.60;;;;;;468285;253;27537;-71
2021/04/27 01:17:20;;;;;;;6.30;2.58;;;5.80;77.60;;;;;;468281;253;27525;-71
2021/04/27 01:19:21;;;;;;;3.03;2.08;;;5.70;78.20;;;;;;468283;253;27536;-71
2021/04/27 01:21:22;;;;;;;2.50;2.30;;;5.70;78.10;;;;;;468281;253;27458;-71
2021/04/27 01:23:24;;;;;;;7.30;2.72;;;5.70;78.00;;;;;;468292;253;28925;-71
2021/04/27 01:25:25;;;;;;;4.12;2.75;;;5.70;78.10;;;;;;468276;253;27456;-70
2021/04/27 01:27:26;;;;;;;3.37;2.40;;;5.60;78.10;;;;;;468270;253;28044;-71
2021/04/27 01:29:28;;;;;;;3.10;2.67;;;5.60;78.30;;;;;;468293;253;28031;-71
2021/04/27 01:31:29;;;;;;;3.03;2.70;;;5.60;78.30;;;;;;468286;253;27466;-71
2021/04/27 01:33:30;;;;;;;2.75;2.55;;;5.60;78.60;;;;;;468311;253;27472;-71
2021/04/27 01:35:31;;;;;;;2.43;2.10;;;5.60;79.00;;;;;;468305;253;27569;-71
2021/04/27 01:37:32;;;;;;;2.53;2.33;;;5.60;79.60;;;;;;468288;253;28029;-71
2021/04/27 01:39:34;;;;;;;2.70;2.50;;;5.50;79.40;;;;;;468356;253;27879;-71
2021/04/27 01:41:35;;;;;;;2.20;2.10;;;5.60;79.40;;;;;;468304;253;27941;-72
2021/04/27 01:43:36;;;;;;;3.20;2.00;;;5.50;79.30;;;;;;468288;253;28420;-71
2021/04/27 01:45:37;;;;;;;2.70;2.50;;;5.50;79.60;;;;;;468300;253;27481;-71
2021/04/27 01:47:39;;;;;;;2.60;2.40;;;5.50;79.70;;;;;;468282;253;27562;-71
2021/04/27 01:49:40;;;;;;;4.03;2.55;;;5.40;80.00;;;;;;468296;253;27560;-71
2021/04/27 01:51:41;;;;;;;3.60;2.80;;;5.40;79.70;;;;;;468292;253;27481;-71
2021/04/27 01:53:43;;;;;;;3.00;2.53;;;5.40;80.80;;;;;;468298;253;27466;-72
2021/04/27 01:55:44;;;;;;;5.35;2.80;;;5.40;80.50;;;;;;468267;253;28939;-71
2021/04/27 01:57:45;;;;;;;3.08;2.30;;;5.30;80.70;;;;;;468289;253;27913;-71
2021/04/27 01:59:46;;;;;;;2.97;2.70;;;5.20;80.80;;;;;;468309;249;28073;-72
2021/04/27 02:01:48;;;;;;;2.83;2.10;;;5.20;81.10;;;;;;468327;253;29370;-71
2021/04/27 02:03:50;;;;;;;2.55;2.35;;;5.20;81.20;;;;;;468301;253;29335;-71
2021/04/27 02:05:51;;;;;;;2.47;2.20;;;5.20;81.40;;;;;;468314;253;28028;-71
2021/04/27 02:07:52;;;;;;;2.92;2.22;;;5.20;81.50;;;;;;468318;253;27457;-72
2021/04/27 02:09:53;;;;;;;6.00;2.50;;;5.20;81.70;;;;;;468290;253;27464;-72
2021/04/27 02:11:55;;;;;;;4.20;2.97;;;5.10;81.80;;;;;;468300;253;27445;-71
2021/04/27 02:13:56;;;;;;;4.93;2.60;;;5.10;82.30;;;;;;468269;253;27628;-72
2021/04/27 02:15:57;;;;;;;3.37;2.97;;;5.10;82.60;;;;;;468272;249;27554;-71
2021/04/27 02:17:58;;;;;;;4.15;2.72;;;5.00;82.80;;;;;;468268;253;27998;-72
2021/04/27 02:20:00;;;;;;;4.00;2.85;;;5.10;82.70;;;;;;468281;253;27928;-71
2021/04/27 02:22:01;;;;;;;3.65;2.50;;;5.10;82.50;;;;;;468274;253;27465;-71
2021/04/27 02:24:02;;;;;;;2.95;2.65;;;5.10;82.40;;;;;;468269;253;27546;-71
2021/04/27 02:26:04;;;;;;;3.20;2.80;;;5.10;82.70;;;;;;468289;253;27472;-71
2021/04/27 02:28:05;;;;;;;3.85;2.60;;;5.10;82.50;;;;;;468324;253;27442;-71
2021/04/27 02:30:06;;;;;;;2.65;2.45;;;5.10;82.70;;;;;;468293;253;27468;-71
2021/04/27 02:32:07;;;;;;;3.87;2.70;;;5.10;83.30;;;;;;468295;253;28020;-71
2021/04/27 02:34:09;;;;;;;3.03;2.67;;;5.10;83.00;;;;;;468295;253;27940;-71
2021/04/27 02:36:10;;;;;;;3.90;3.35;;;5.00;83.00;;;;;;468278;253;27462;-72
2021/04/27 02:38:11;;;;;;;6.95;2.60;;;5.00;83.20;;;;;;468311;253;27450;-71
2021/04/27 02:40:12;;;;;;;3.17;2.55;;;5.10;83.70;;;;;;468267;253;27540;-72
2021/04/27 02:42:14;;;;;;;4.28;2.65;;;5.20;84.20;;;;;;468286;253;27453;-71
2021/04/27 02:44:15;;;;;;;2.87;2.67;;;5.10;83.70;;;;;;468281;253;27469;-71
2021/04/27 02:46:16;;;;;;;3.50;2.70;;;5.10;84.00;;;;;;468262;253;28930;-72
2021/04/27 02:48:17;;;;;;;4.90;3.40;;;5.00;84.40;;;;;;468278;253;27929;-70
2021/04/27 02:50:19;;;;;;;4.12;3.05;;;4.90;84.00;;;;;;468280;253;28039;-71
2021/04/27 02:52:20;;;;;;;3.53;3.20;;;4.90;84.50;;;;;;468285;253;27453;-71
2021/04/27 02:54:21;;;;;;;6.37;3.28;;;4.80;84.80;;;;;;468283;253;27457;-72
2021/04/27 02:56:22;;;;;;;5.35;3.00;;;4.80;84.90;;;;;;468290;253;27453;-71
2021/04/27 02:58:24;;;;;;;5.60;3.10;;;4.80;85.10;;;;;;468292;253;27541;-71
2021/04/27 03:00:25;;;;;;;3.55;2.70;;;4.80;85.30;;;;;;468273;253;27534;-71
2021/04/27 03:02:26;;;;;;;3.08;2.78;;;4.80;85.50;;;;;;468252;253;27942;-71
2021/04/27 03:04:27;;;;;;;3.75;2.90;;;4.80;85.70;;;;;;468293;253;27896;-71
2021/04/27 03:06:29;;;;;;;4.15;3.15;;;4.70;86.00;;;;;;468315;253;27488;-73
2021/04/27 03:08:30;;;;;;;4.07;3.10;;;4.70;85.80;;;;;;468306;253;27446;-72
2021/04/27 03:10:31;;;;;;;3.62;2.85;;;4.70;86.30;;;;;;468292;253;27537;-72
2021/04/27 03:12:32;;;;;;;5.20;3.03;;;4.70;86.40;;;;;;468285;253;27445;-71
2021/04/27 03:14:34;;;;;;;5.60;3.10;;;4.70;86.60;;;;;;468297;253;27468;-71
2021/04/27 03:16:35;;;;;;;4.20;2.85;;;4.70;86.60;;;;;;468300;253;27910;-72
2021/04/27 03:18:36;;;;;;;6.18;2.92;;;4.60;87.10;;;;;;468276;253;27921;-71
2021/04/27 03:20:37;;;;;;;7.12;3.15;;;4.60;87.30;;;;;;468272;253;27457;-72
2021/04/27 03:22:39;;;;;;;5.60;2.90;;;4.50;87.40;;;;;;463677;245;27445;-71
2021/04/27 03:24:40;;;;;;;7.37;3.22;;;4.50;87.60;;;;;;460159;254;27459;-72
2021/04/27 03:26:41;;;;;;;5.07;3.50;;;4.40;87.90;;;;;;460171;254;27457;-73
2021/04/27 03:28:42;;;;;;;3.90;3.25;;;4.50;88.30;;;;;;460160;256;27999;-70
2021/04/27 03:30:44;;;;;;;3.90;3.53;;;4.40;88.50;;;;;;460183;256;27457;-72
2021/04/27 03:32:45;;;;;;;3.80;3.17;;;4.40;88.60;;;;;;460144;254;28000;-71
2021/04/27 03:34:46;;;;;;;3.00;2.80;;;4.40;88.70;;;;;;460149;256;27906;-73
2021/04/27 03:36:48;;;;;;;8.10;3.35;;;4.50;89.30;;;;;;460133;254;27587;-71
2021/04/27 03:38:49;;;;;;;4.65;2.80;;;4.40;89.00;;;;;;460152;256;27537;-71
2021/04/27 03:40:50;;;;;;;2.65;2.45;;;4.50;89.10;;;;;;460151;256;27469;-70
2021/04/27 03:42:51;;;;;;;3.58;3.15;;;4.40;89.20;;;;;;460942;249;27455;-70
2021/04/27 03:44:53;;;;;;;3.20;3.00;;;4.40;89.20;;;;;;460998;257;27533;-71
2021/04/27 03:46:54;;;;;;;4.65;2.80;;;4.40;89.50;;;;;;461018;257;27467;-71
2021/04/27 03:48:55;;;;;;;6.47;3.00;;;4.40;89.70;;;;;;460958;257;27554;-73
2021/04/27 03:50:56;;;;;;;3.30;2.95;;;4.40;89.80;;;;;;460996;257;27916;-72
2021/04/27 03:52:58;;;;;;;5.15;3.50;;;4.30;89.80;;;;;;479517;244;27507;-71
2021/04/27 03:54:59;;;;;;;3.47;3.10;;;4.30;90.20;;;;;;487959;244;27523;-72
2021/04/27 03:57:02;;;;;;;5.85;3.15;;;4.30;90.60;;;;;;487866;244;27515;-70
2021/04/27 03:59:01;;;;;;;4.37;2.90;;;4.30;90.30;;;;;;487935;244;27497;-70
2021/04/27 04:01:03;;;;;;;4.70;3.03;;;4.30;90.40;;;;;;487922;244;27627;-71
2021/04/27 04:03:04;;;;;;;3.92;2.75;;;4.30;90.40;;;;;;487918;244;27600;-71
2021/04/27 04:05:05;;;;;;;5.25;2.70;;;4.20;90.30;;;;;;487937;244;27889;-71
2021/04/27 04:07:06;;;;;;;5.18;2.95;;;4.20;90.50;;;;;;487954;244;27930;-71
2021/04/27 04:09:08;;;;;;;3.37;2.97;;;4.20;90.70;;;;;;487901;244;27513;-70
2021/04/27 04:11:09;;;;;;;4.65;3.17;;;4.10;90.80;;;;;;487886;244;27528;-71
2021/04/27 04:13:10;;;;;;;7.30;3.00;;;4.10;90.80;;;;;;487908;244;27625;-70
2021/04/27 04:15:11;;;;;;;3.30;2.78;;;4.20;91.00;;;;;;487906;244;27631;-71
2021/04/27 04:17:13;;;;;;;3.40;2.67;;;4.20;91.10;;;;;;487907;244;27952;-70
2021/04/27 04:19:14;;;;;;;2.95;2.65;;;4.20;91.10;;;;;;487933;244;27488;-70
2021/04/27 04:21:15;;;;;;;3.55;2.80;;;4.20;91.10;;;;;;487951;244;27409;-71
2021/04/27 04:23:16;;;;;;;4.15;3.10;;;4.30;91.10;;;;;;487926;244;28052;-70
2021/04/27 04:25:18;;;;;;;4.15;3.30;;;4.20;91.20;;;;;;487934;244;27911;-71
2021/04/27 04:27:19;;;;;;;3.35;2.92;;;4.20;91.30;;;;;;487930;244;27607;-70
2021/04/27 04:29:24;;;;;;;7.95;3.10;;;4.20;91.30;;;;;;487934;244;27428;-72
2021/04/27 04:31:21;;;;;;;3.55;3.25;;;4.20;91.40;;;;;;487902;244;27605;-72
2021/04/27 04:33:23;;;;;;;5.62;2.87;;;4.20;91.40;;;;;;487991;244;27503;-71
2021/04/27 04:35:24;;;;;;;4.97;3.00;;;4.20;91.50;;;;;;487934;244;27519;-70
2021/04/27 04:37:25;;;;;;;6.82;3.40;;;4.20;91.70;;;;;;487910;244;27863;-71
2021/04/27 04:39:26;;;;;;;2.80;2.60;;;4.00;92.50;;;;;;487926;244;27860;-71
2021/04/27 04:41:28;;;;;;;2.97;2.70;;;3.90;92.80;;;;;;487926;244;27975;-73
2021/04/27 04:43:29;;;;;;;3.47;3.17;;;3.80;93.00;;;;;;487929;244;27424;-70
2021/04/27 04:45:30;;;;;;;4.20;2.83;;;3.80;92.80;;;;;;487943;244;27436;-71
2021/04/27 04:47:31;;;;;;;7.68;3.35;;;3.90;92.50;;;;;;487912;244;27604;-70
2021/04/27 04:49:33;;;;;;;3.12;2.92;;;4.00;92.20;;;;;;487932;244;27424;-71
2021/04/27 04:51:34;;;;;;;5.70;3.58;;;4.10;92.00;;;;;;487902;244;27509;-72
2021/04/27 04:53:35;;;;;;;3.42;3.12;;;4.10;92.10;;;;;;487907;244;27436;-70
2021/04/27 04:55:37;;;;;;;5.32;3.33;;;4.10;92.20;;;;;;487927;244;27979;-71
2021/04/27 04:57:38;;;;;;;3.65;3.08;;;4.10;92.30;;;;;;487927;244;27895;-72
2021/04/27 04:59:39;;;;;;;3.80;3.40;;;4.10;92.30;;;;;;487907;244;27520;-71
2021/04/27 05:01:40;;;;;;;6.97;4.70;;;4.30;92.20;;;;;;487909;244;27541;-72
2021/04/27 05:03:42;;;;;;;6.82;3.97;;;4.30;92.30;;;;;;487939;244;27428;-71
2021/04/27 05:05:44;;;;;;;8.50;4.85;;;4.30;92.20;;;;;;487960;244;27600;-71
2021/04/27 05:07:46;;;;;;;9.25;4.70;;;4.40;92.10;;;;;;487887;244;27528;-71
2021/04/27 05:09:45;;;;;;;8.98;4.53;;;4.30;92.20;;;;;;487905;244;27532;-71
2021/04/27 05:11:47;;;;;;;6.97;5.20;;;4.20;92.20;;;;;;487938;244;27992;-72
2021/04/27 05:13:48;;;;;;;5.78;4.43;;;4.30;92.30;;;;;;487968;244;27967;-71
2021/04/27 05:15:49;;;;;;;7.68;4.37;;;4.30;92.30;;;;;;487946;244;27413;-73
2021/04/27 05:17:50;;;;;;;4.60;4.10;;;4.30;92.40;;;;;;487948;244;27570;-71
2021/04/27 05:19:52;;;;;;;6.25;3.55;;;4.30;92.40;;;;;;487933;244;27628;-71
2021/04/27 05:21:53;;;;;;;6.18;3.55;;;4.40;92.30;;;;;;487924;243;27635;-73
2021/04/27 05:23:54;;;;;;;3.92;3.22;;;4.40;92.50;;;;;;487969;244;27411;-71
2021/04/27 05:25:55;;;;;;;3.95;2.92;;;4.40;92.40;;;;;;487979;244;27861;-72
2021/04/27 05:27:57;;;;;;;5.65;3.50;;;4.50;92.50;;;;;;487975;244;27992;-71
2021/04/27 05:29:58;;;;;;;5.05;3.10;;;4.40;92.10;;;;;;487967;244;27404;-71
2021/04/27 05:31:59;;;;;;;2.90;2.60;;;4.40;92.30;;;;;;487955;244;27428;-72
2021/04/27 05:34:00;;;;;;;5.03;3.30;;;4.50;92.70;;;;;;487928;244;27494;-72
2021/04/27 05:36:02;;;;;;;4.97;3.45;;;4.50;92.30;;;;;;487924;244;27421;-72
2021/04/27 05:38:03;;;;;;;4.15;3.58;;;4.50;92.30;;;;;;487945;244;27630;-71
2021/04/27 05:40:04;;;;;;;8.32;3.28;;;4.60;92.20;;;;;;487959;244;27619;-71
2021/04/27 05:42:05;;;;;;;3.90;3.50;;;4.60;92.20;;;;;;487957;244;27956;-71
2021/04/27 05:44:07;;;;;;;2.95;2.72;;;4.60;92.20;;;;;;487932;244;28055;-71
2021/04/27 05:46:08;;;;;;;14.23;4.18;;;4.60;92.30;;;;;;487934;244;27656;-72
2021/04/27 05:48:09;;;;;;;3.42;2.87;;;4.70;92.20;;;;;;487930;244;27619;-71
2021/04/27 05:50:10;;;;;;;7.30;3.10;;;4.60;92.20;;;;;;487969;244;27552;-70
2021/04/27 05:52:12;;;;;;;4.55;3.10;;;4.70;92.40;;;;;;487991;244;27420;-71
2021/04/27 05:54:13;;;;;;;4.25;3.10;;;4.80;92.30;;;;;;487969;244;27519;-71
2021/04/27 05:56:14;;;;;;;4.28;3.10;;;4.90;92.20;;;;;;487982;244;27950;-72
2021/04/27 05:58:15;;;;;;;4.62;3.10;;;5.00;92.00;;;;;;487930;244;27397;-71
2021/04/27 06:00:17;;;;;;;5.25;3.25;;;5.00;92.10;;;;;;487937;244;27425;-71
2021/04/27 06:02:18;;;;;;;4.40;3.45;;;5.10;91.90;;;;;;487945;244;28006;-71
2021/04/27 06:04:19;;;;;;;6.50;3.50;;;5.00;91.80;;;;;;487950;244;27420;-70
2021/04/27 06:06:20;;;;;;;4.80;3.03;;;5.10;92.00;;;;;;487954;244;27512;-71
2021/04/27 06:08:22;;;;;;;3.72;3.42;;;5.20;92.20;;;;;;487934;244;27950;-71
2021/04/27 06:10:23;;;;;;;7.30;3.00;;;5.30;91.90;;;;;;487956;244;27979;-72
2021/04/27 06:12:24;;;;;;;5.67;3.50;;;5.40;91.90;;;;;;487944;244;27497;-71
2021/04/27 06:14:26;;;;;;;3.17;2.85;;;5.40;91.40;;;;;;487923;244;28785;-71
2021/04/27 06:16:27;;;;;;;3.80;3.50;;;5.50;91.50;;;;;;487941;244;27509;-72
2021/04/27 06:18:28;;;;;;;6.37;3.37;;;5.50;91.30;;;;;;487967;244;27579;-71
2021/04/27 06:20:29;;;;;;;6.70;3.40;;;5.60;91.20;;;;;;487967;244;27488;-71
2021/04/27 06:22:31;;;;;;;7.00;3.53;;;5.60;91.10;;;;;;487969;244;27963;-71
2021/04/27 06:24:32;;;;;;;4.20;3.37;;;5.70;91.10;;;;;;487988;244;27420;-71
2021/04/27 06:26:33;;;;;;;7.03;3.73;;;5.80;90.90;;;;;;487971;244;28000;-73
2021/04/27 06:28:34;;;;;;;3.07;2.87;;;5.70;90.90;;;;;;487941;244;28189;-70
2021/04/27 06:30:36;;;;;;;3.90;3.43;;;5.80;90.80;;;;;;487951;244;28676;-71
2021/04/27 06:32:37;;;;;;;3.00;2.47;;;5.90;90.80;;;;;;487964;244;27968;-71
2021/04/27 06:34:38;;;;;;;3.73;2.97;;;5.90;90.50;;;;;;487940;244;28293;-71
2021/04/27 06:36:39;;;;;;;3.43;3.13;;;6.00;90.50;;;;;;487979;244;28350;-73
2021/04/27 06:38:41;;;;;;;5.10;3.97;;;6.00;90.10;;;;;;487941;244;28078;-71
2021/04/27 06:40:42;;;;;;;8.43;3.20;;;5.90;90.30;;;;;;487951;244;27648;-72
2021/04/27 06:42:43;;;;;;;5.40;3.60;;;6.00;90.60;;;;;;487933;244;27975;-71
2021/04/27 06:44:44;;;;;;;4.28;2.92;;;6.00;90.30;;;;;;487938;244;28645;-72
2021/04/27 06:46:46;;;;;;;5.70;3.30;;;6.10;90.30;;;;;;487939;244;27504;-73
2021/04/27 06:48:47;;;;;;;4.80;3.90;;;6.10;90.10;;;;;;487937;244;27770;-71
2021/04/27 06:50:48;;;;;;;3.90;3.20;;;6.30;90.10;;;;;;487941;244;27887;-72
2021/04/27 06:52:49;;;;;;;3.83;3.40;;;6.30;90.00;;;;;;487979;244;27990;-71
2021/04/27 06:54:51;;;;;;;3.37;3.07;;;6.30;89.50;;;;;;487918;244;28019;-71
2021/04/27 06:56:52;;;;;;;3.37;3.07;;;6.40;89.10;;;;;;487939;244;27622;-73
2021/04/27 06:58:53;;;;;;;4.97;3.20;;;6.30;88.80;;;;;;487928;244;27767;-71
2021/04/27 07:00:54;;;;;;;7.43;3.10;;;6.40;89.10;;;;;;487951;244;28368;-72
2021/04/27 07:02:56;;;;;;;7.83;3.17;;;6.60;88.80;;;;;;487940;244;28439;-71
2021/04/27 07:04:57;;;;;;;3.73;3.17;;;6.50;88.40;;;;;;487932;244;28511;-71
2021/04/27 07:06:58;;;;;;;5.20;3.00;;;6.50;88.40;;;;;;487943;244;28568;-72
2021/04/27 07:08:59;;;;;;;3.60;2.97;;;6.60;88.40;;;;;;487944;244;28429;-71
2021/04/27 07:11:01;;;;;;;3.63;3.13;;;6.50;88.50;;;;;;487936;244;28561;-72
2021/04/27 07:13:02;;;;;;;3.27;2.97;;;6.70;88.20;;;;;;487936;244;27600;-71
2021/04/27 07:15:03;;;;;;;5.53;3.47;;;6.80;88.50;;;;;;487935;244;27983;-71
2021/04/27 07:17:04;;;;;;;3.97;3.10;;;6.80;88.10;;;;;;487956;244;28318;-71
2021/04/27 07:19:06;;;;;;;5.57;3.50;;;6.90;88.70;;;;;;487966;244;27969;-71
2021/04/27 07:21:07;;;;;;;6.10;3.10;;;7.10;87.90;;;;;;487965;244;28192;-72
2021/04/27 07:23:08;;;;;;;3.70;3.33;;;7.10;87.60;;;;;;487933;244;27888;-71
2021/04/27 07:25:09;;;;;;;4.00;3.60;;;7.00;87.10;;;;;;487931;244;27985;-71
2021/04/27 07:27:10;;;;;;;5.00;3.20;;;6.90;87.30;;;;;;487952;244;28088;-71
2021/04/27 07:29:12;;;;;;;5.10;3.50;;;7.00;87.60;;;;;;487972;244;27697;-72
2021/04/27 07:31:13;;;;;;;3.43;3.13;;;7.20;87.90;;;;;;487937;244;28072;-73
2021/04/27 07:33:14;;;;;;;4.83;2.90;;;7.10;87.00;;;;;;487989;244;27960;-72
2021/04/27 07:35:15;;;;;;;5.13;3.13;;;7.20;87.10;;;;;;487958;244;28090;-72
2021/04/27 07:37:17;;;;;;;3.63;3.03;;;7.40;86.80;;;;;;487982;244;27992;-72
2021/04/27 07:39:18;;;;;;;5.23;3.00;;;7.50;87.20;;;;;;487973;244;27960;-72
2021/04/27 07:41:19;;;;;;;3.80;3.03;;;7.60;86.70;;;;;;487932;244;28548;-73
2021/04/27 07:43:21;;;;;;;3.00;2.80;;;7.70;85.80;;;;;;487943;244;28353;-71
2021/04/27 07:45:22;;;;;;;3.17;2.87;;;7.60;85.60;;;;;;487939;244;28332;-71
2021/04/27 07:47:23;;;;;;;5.97;3.60;;;7.60;87.00;;;;;;487925;244;28336;-71
2021/04/27 07:49:24;;;;;;;8.47;3.27;;;7.70;86.00;;;;;;487930;244;27896;-72
2021/04/27 07:51:25;;;;;;;3.63;3.33;;;7.90;85.60;;;;;;487934;244;27961;-72
2021/04/27 07:53:27;;;;;;;3.57;2.73;;;8.00;85.40;;;;;;487932;244;28185;-71
2021/04/27 07:55:28;;;;;;;3.20;2.90;;;8.10;85.30;;;;;;487929;244;27706;-72
2021/04/27 07:57:29;;;;;;;5.90;3.40;;;8.10;85.70;;;;;;487984;244;27944;-72
2021/04/27 07:59:30;;;;;;;10.23;3.20;;;8.10;83.80;;;;;;487962;244;27801;-72
2021/04/27 08:01:32;;;;;;;8.30;3.13;;;8.10;84.90;;;;;;487974;244;28156;-73
2021/04/27 08:03:33;;;;;;;4.00;3.53;;;8.10;83.30;;;;;;487980;244;27964;-71
2021/04/27 08:05:34;;;;;;;4.47;3.30;;;8.20;85.30;;;;;;487987;244;27875;-72
2021/04/27 08:07:35;;;;;;;4.07;2.80;;;8.20;83.30;;;;;;487967;244;28208;-71
2021/04/27 08:09:37;;;;;;;9.80;3.73;;;8.20;83.80;;;;;;487979;244;27967;-72
2021/04/27 08:11:39;;;;;;;3.87;2.93;;;8.30;83.40;;;;;;487995;244;27748;-72
2021/04/27 08:13:39;;;;;;;5.57;3.27;;;8.40;83.30;;;;;;487989;244;27536;-72
2021/04/27 08:15:41;;;;;;;5.53;3.10;;;8.30;83.70;;;;;;487968;244;28495;-72
2021/04/27 08:17:42;;;;;;;3.60;2.93;;;8.50;83.10;;;;;;487941;244;28373;-72
2021/04/27 08:19:43;;;;;;;5.93;3.50;;;8.60;81.80;;;;;;487917;244;28383;-72
2021/04/27 08:21:44;;;;;;;4.13;3.00;;;8.60;82.10;;;;;;487985;244;28318;-71
2021/04/27 08:23:45;;;;;;;5.27;3.50;;;8.60;82.30;;;;;;487976;244;28338;-72
2021/04/27 08:25:47;;;;;;;3.40;3.10;;;8.60;82.10;;;;;;487981;244;28449;-73
2021/04/27 08:27:48;;;;;;;3.40;3.10;;;8.70;82.10;;;;;;487967;244;28059;-72
2021/04/27 08:29:49;;;;;;;3.23;2.93;;;8.70;83.40;;;;;;487983;244;27982;-72
2021/04/27 08:31:50;;;;;;;5.00;3.20;;;8.90;81.90;;;;;;487926;244;27977;-72
2021/04/27 08:33:52;;;;;;;3.30;3.00;;;8.90;81.60;;;;;;487941;244;27953;-72
2021/04/27 08:35:53;;;;;;;4.80;3.20;;;9.00;81.40;;;;;;487946;244;28129;-72
2021/04/27 08:37:54;;;;;;;5.43;3.00;;;9.00;81.00;;;;;;487939;244;27991;-71
2021/04/27 08:39:55;;;;;;;3.80;3.40;;;9.00;80.00;;;;;;487920;244;28086;-72
2021/04/27 08:41:57;;;;;;;3.40;3.10;;;9.00;81.30;;;;;;487943;244;27450;-72
2021/04/27 08:43:58;;;;;;;3.57;3.27;;;9.30;81.50;;;;;;487935;244;27999;-72
2021/04/27 08:45:59;;;;;;;3.97;3.57;;;9.40;80.00;;;;;;487941;244;27965;-72
2021/04/27 08:48:00;;;;;;;4.57;3.27;;;9.50;79.80;;;;;;487957;244;27865;-72
2021/04/27 08:50:02;;;;;;;5.90;3.07;;;9.60;79.10;;;;;;488013;244;28196;-72
2021/04/27 08:52:03;;;;;;;5.60;4.00;;;9.70;80.00;;;;;;487981;244;27912;-72
2021/04/27 08:54:04;;;;;;;8.53;3.50;;;9.60;78.60;;;;;;487988;244;28355;-72
2021/04/27 08:56:05;;;;;;;4.63;3.37;;;9.40;78.80;;;;;;488024;244;28169;-73
2021/04/27 08:58:07;;;;;;;5.17;3.50;;;9.40;78.80;;;;;;488007;244;28347;-72
2021/04/27 09:00:08;;;;;;;3.93;3.53;;;9.40;79.00;;;;;;487982;244;28518;-72
2021/04/27 09:02:09;;;;;;;8.10;3.70;;;9.50;80.00;;;;;;487952;244;28499;-72
2021/04/27 09:04:10;;;;;;;4.10;3.03;;;9.80;78.70;;;;;;487956;244;27962;-72
2021/04/27 09:06:12;;;;;;;5.30;3.63;;;10.00;79.20;;;;;;487950;244;27676;-73
2021/04/27 09:08:13;;;;;;;7.33;4.00;;;10.00;78.20;;;;;;487976;244;27758;-72
2021/04/27 09:10:14;;;;;;;7.27;3.80;;;10.20;78.50;;;;;;487942;244;28121;-72
2021/04/27 09:12:15;;;;;;;4.90;3.70;;;10.30;77.10;;;;;;487951;244;27653;-72
2021/04/27 09:14:17;;;;;;;5.23;3.60;;;10.10;76.00;;;;;;487954;244;28162;-71
2021/04/27 09:16:18;;;;;;;6.60;3.90;;;10.10;76.00;;;;;;488019;244;27843;-72
2021/04/27 09:18:19;;;;;;;9.10;4.30;;;10.20;77.40;;;;;;488002;244;27874;-72
2021/04/27 09:20:20;;;;;;;5.87;3.53;;;10.10;76.60;;;;;;488001;244;28028;-72
2021/04/27 09:22:22;;;;;;;5.93;3.70;;;10.20;77.60;;;;;;487998;244;28469;-72
2021/04/27 09:24:23;;;;;;;7.40;3.63;;;10.40;76.80;;;;;;487999;244;28325;-72
2021/04/27 09:26:25;;;;;;;3.63;3.37;;;10.50;76.30;;;;;;487942;239;28911;-72
2021/04/27 09:28:25;;;;;;;9.93;3.77;;;10.50;75.80;;;;;;487936;244;27971;-72
2021/04/27 09:30:28;;;;;;;7.20;4.07;;;10.50;75.50;;;;;;488022;244;28247;-73
2021/04/27 09:32:28;;;;;;;5.47;3.90;;;10.60;75.20;;;;;;488009;244;27909;-72
2021/04/27 09:34:29;;;;;;;5.47;3.90;;;10.60;76.50;;;;;;487999;244;27995;-72
2021/04/27 09:36:31;;;;;;;5.73;3.73;;;10.60;75.60;;;;;;487999;244;28101;-72
2021/04/27 09:38:32;;;;;;;7.53;4.27;;;11.00;75.00;;;;;;487978;244;28048;-72
2021/04/27 09:40:33;;;;;;;7.27;4.20;;;11.10;74.60;;;;;;488021;244;28140;-73
2021/04/27 09:42:34;;;;;;;5.33;3.67;;;11.10;73.40;;;;;;488035;244;27891;-73
2021/04/27 09:44:35;;;;;;;6.37;4.23;;;11.20;73.40;;;;;;487997;244;28297;-72
2021/04/27 09:46:37;;;;;;;18.97;4.63;;;11.10;73.30;;;;;;487991;244;28607;-72
2021/04/27 09:48:38;;;;;;;4.93;3.57;;;11.10;75.60;;;;;;487944;244;28604;-72
2021/04/27 09:50:39;;;;;;;5.07;4.17;;;11.10;73.20;;;;;;487950;244;28461;-73
2021/04/27 09:52:40;;;;;;;6.60;3.87;;;11.40;73.30;;;;;;487970;244;28125;-72
2021/04/27 09:54:42;;;;;;;7.63;4.10;;;11.60;71.90;;;;;;487949;244;28236;-72
2021/04/27 09:56:44;;;;;;;6.50;3.60;;;11.60;72.40;;;;;;487956;244;28325;-72
2021/04/27 09:58:44;;;;;;;5.73;3.70;;;11.70;72.00;;;;;;487940;244;28139;-72
2021/04/27 10:00:45;;;;;;;5.27;4.10;;;11.80;72.60;;;;;;487927;244;28134;-73
2021/04/27 10:02:47;;;;;;;9.30;4.40;;;11.60;70.60;;;;;;488001;244;28350;-72
2021/04/27 10:04:48;;;;;;;5.00;3.70;;;11.60;71.80;;;;;;487950;244;28431;-72
2021/04/27 10:06:49;;;;;;;5.37;4.13;;;11.60;71.30;;;;;;487947;244;28104;-72
2021/04/27 10:08:50;;;;;;;4.97;3.67;;;11.70;71.90;;;;;;487959;244;27999;-72
2021/04/27 10:10:52;;;;;;;5.17;3.93;;;11.60;71.80;;;;;;487960;244;28763;-73
2021/04/27 10:12:53;;;;;;;6.67;4.13;;;11.60;70.10;;;;;;487952;244;28918;-72
2021/04/27 10:14:54;;;;;;;4.77;4.03;;;11.80;71.60;;;;;;487943;244;28623;-72
2021/04/27 10:16:57;;;;;;;10.90;4.20;;;;;;;;;;487951;244;28089;-72
2021/04/27 10:18:58;;;;;;;4.07;3.70;;;11.90;70.30;;;;;;487953;244;26522;-72
2021/04/27 10:20:59;;;;;;;5.40;4.20;;;12.20;72.20;;;;;;488013;244;27964;-72
2021/04/27 10:23:00;;;;;;;4.20;3.63;;;12.20;67.30;;;;;;488010;244;28459;-73
2021/04/27 10:25:02;;;;;;;12.03;4.47;;;12.20;70.10;;;;;;487997;244;28091;-72
2021/04/27 10:27:03;;;;;;;5.80;4.80;;;12.10;70.00;;;;;;488020;244;28548;-72
2021/04/27 10:29:04;;;;;;;6.00;4.40;;;12.50;65.10;;;;;;487942;244;28845;-72
2021/04/27 10:31:05;;;;;;;5.67;4.40;;;12.40;64.50;;;;;;487948;244;28355;-72
2021/04/27 10:33:07;;;;;;;4.50;4.10;;;12.40;65.30;;;;;;487957;244;28208;-72
2021/04/27 10:35:08;;;;;;;4.30;3.90;;;12.50;69.90;;;;;;488009;244;28573;-72
2021/04/27 10:37:09;;;;;;;4.53;3.87;;;12.50;67.50;;;;;;488016;244;28816;-72